createdAt,value
2022-08-16T00:00:26.430Z,83.27
2022-08-16T00:02:54.251Z,82.04
2022-08-16T00:05:23.346Z,83.22
2022-08-16T00:07:56.258Z,83.22
2022-08-16T00:10:25.719Z,82.27
2022-08-16T00:12:52.668Z,83.51
2022-08-16T00:15:51.970Z,83.19
2022-08-16T00:18:17.425Z,84.34
2022-08-16T00:20:46.784Z,83.71
2022-08-16T00:23:14.609Z,84.50
2022-08-16T00:26:33.638Z,84.16
2022-08-16T00:28:29.867Z,83.88
2022-08-16T00:30:59.217Z,84.63
2022-08-16T00:33:28.369Z,83.84
2022-08-16T00:35:57.464Z,84.04
2022-08-16T00:38:40.239Z,83.68
2022-08-16T00:41:08.498Z,83.62
2022-08-16T00:43:43.407Z,82.72
2022-08-16T00:46:32.960Z,83.40
2022-08-16T00:49:04.158Z,83.63
2022-08-16T00:51:30.842Z,84.43
2022-08-16T00:53:57.739Z,84.90
2022-08-16T00:56:58.573Z,84.74
2022-08-16T00:59:18.977Z,84.90
2022-08-16T01:01:46.242Z,84.77
2022-08-16T01:04:29.356Z,85.60
2022-08-16T01:07:01.156Z,85.38
2022-08-16T01:09:33.656Z,85.14
2022-08-16T01:12:03.348Z,85.68
2022-08-16T01:14:35.185Z,86.14
2022-08-16T01:17:03.687Z,86.79
2022-08-16T01:19:41.098Z,86.96
2022-08-16T01:22:58.861Z,86.98
2022-08-16T01:25:34.588Z,86.85
2022-08-16T01:28:09.957Z,87.66
2022-08-16T01:30:53.529Z,85.93
2022-08-16T01:33:22.403Z,87.08
2022-08-16T01:36:01.855Z,86.84
2022-08-16T01:38:49.278Z,86.64
2022-08-16T01:41:30.771Z,86.54
2022-08-16T01:44:01.093Z,86.29
2022-08-16T01:46:39.074Z,86.95
2022-08-16T01:49:25.446Z,87.22
2022-08-16T01:52:27.992Z,87.67
2022-08-16T01:55:22.855Z,87.71
2022-08-16T01:57:53.309Z,88.09
2022-08-16T02:00:29.467Z,87.29
2022-08-16T02:03:00.282Z,86.69
2022-08-16T02:05:30.354Z,86.65
2022-08-16T02:07:59.584Z,86.72
2022-08-16T02:10:27.239Z,87.61
2022-08-16T02:12:56.070Z,87.66
2022-08-16T02:15:35.402Z,87.64
2022-08-16T02:18:08.211Z,88.09
2022-08-16T02:20:42.612Z,88.66
2022-08-16T02:23:13.110Z,88.37
2022-08-16T02:25:52.280Z,88.75
2022-08-16T02:28:23.583Z,88.87
2022-08-16T02:30:52.026Z,89.07
2022-08-16T02:33:24.627Z,89.11
2022-08-16T02:36:14.169Z,88.11
2022-08-16T02:38:41.306Z,88.84
2022-08-16T02:41:09.980Z,88.01
2022-08-16T02:43:39.029Z,88.63
2022-08-16T02:46:08.403Z,90.01
2022-08-16T02:48:38.604Z,89.97
2022-08-16T02:51:11.444Z,90.30
2022-08-16T02:53:43.952Z,90.36
2022-08-16T02:56:14.996Z,90.81
2022-08-16T02:58:44.198Z,89.04
2022-08-16T03:01:24.683Z,87.56
2022-08-16T03:04:40.746Z,87.72
2022-08-16T03:06:56.162Z,89.75
2022-08-16T03:09:36.690Z,89.24
2022-08-16T03:12:05.287Z,89.42
2022-08-16T03:14:33.318Z,88.50
2022-08-16T03:17:02.070Z,88.85
2022-08-16T03:19:48.608Z,91.22
2022-08-16T03:22:29.081Z,91.70
2022-08-16T03:25:07.307Z,91.21
2022-08-16T03:27:35.884Z,92.30
2022-08-16T03:30:16.444Z,92.16
2022-08-16T03:32:51.823Z,89.82
2022-08-16T03:35:23.448Z,89.54
2022-08-16T03:38:02.830Z,88.87
2022-08-16T03:40:35.935Z,91.43
2022-08-16T03:43:20.834Z,90.06
2022-08-16T03:45:53.385Z,89.76
2022-08-16T03:48:36.766Z,91.86
2022-08-16T03:51:12.895Z,90.90
2022-08-16T03:53:57.679Z,90.87
2022-08-16T03:56:30.421Z,90.46
2022-08-16T03:58:59.128Z,91.43
2022-08-16T04:01:30.012Z,92.04
2022-08-16T04:03:57.433Z,91.93
2022-08-16T04:06:24.245Z,91.41
2022-08-16T04:08:51.237Z,91.66
2022-08-16T04:11:18.647Z,91.17
2022-08-16T04:14:00.469Z,91.44
2022-08-16T04:16:38.559Z,91.09
2022-08-16T04:19:31.820Z,91.05
2022-08-16T04:22:00.859Z,91.53
2022-08-16T04:24:31.453Z,91.81
2022-08-16T04:26:58.786Z,91.22
2022-08-16T04:29:27.847Z,91.19
2022-08-16T04:32:10.643Z,91.15
2022-08-16T04:34:41.374Z,90.55
2022-08-16T04:37:09.457Z,90.71
2022-08-16T04:39:47.268Z,90.48
2022-08-16T04:42:24.083Z,90.17
2022-08-16T04:44:56.051Z,89.56
2022-08-16T04:47:31.564Z,89.61
2022-08-16T04:50:01.993Z,89.70
2022-08-16T04:52:33.990Z,89.17
2022-08-16T04:55:09.644Z,88.83
2022-08-16T04:57:41.467Z,88.32
2022-08-16T05:00:32.591Z,87.99
2022-08-16T05:03:11.079Z,87.55
2022-08-16T05:05:59.086Z,87.06
2022-08-16T05:08:31.360Z,87.31
2022-08-16T05:11:09.618Z,86.29
2022-08-16T05:13:42.355Z,87.15
2022-08-16T05:16:21.785Z,86.84
2022-08-16T05:18:56.855Z,85.94
2022-08-16T05:21:38.588Z,85.43
2022-08-16T05:24:09.023Z,85.54
2022-08-16T05:26:43.311Z,85.24
2022-08-16T05:29:16.747Z,85.81
2022-08-16T05:31:58.613Z,85.54
2022-08-16T05:34:25.283Z,85.66
2022-08-16T05:36:57.305Z,85.40
2022-08-16T05:39:32.674Z,85.22
2022-08-16T05:42:00.888Z,83.97
2022-08-16T05:44:28.263Z,82.90
2022-08-16T05:47:00.728Z,82.70
2022-08-16T05:49:39.423Z,82.47
2022-08-16T05:52:13.893Z,82.08
2022-08-16T05:54:47.504Z,82.14
2022-08-16T05:57:18.122Z,81.93
2022-08-16T05:59:50.438Z,82.00
2022-08-16T06:02:33.558Z,81.41
2022-08-16T06:05:02.445Z,81.18
2022-08-16T06:07:32.157Z,81.76
2022-08-16T06:10:09.789Z,82.43
2022-08-16T06:12:37.733Z,83.77
2022-08-16T06:15:17.780Z,83.89
2022-08-16T06:17:46.056Z,84.15
2022-08-16T06:20:24.072Z,83.75
2022-08-16T06:22:58.595Z,82.35
2022-08-16T06:25:36.081Z,81.45
2022-08-16T06:28:08.908Z,80.75
2022-08-16T06:30:43.822Z,79.96
2022-08-16T06:33:22.674Z,78.47
2022-08-16T06:35:54.933Z,79.40
2022-08-16T06:38:32.198Z,80.68
2022-08-16T06:41:14.078Z,81.07
2022-08-16T06:43:42.507Z,81.52
2022-08-16T06:46:31.606Z,81.11
2022-08-16T06:49:02.187Z,79.97
2022-08-16T06:51:46.164Z,79.01
2022-08-16T06:54:16.452Z,78.70
2022-08-16T06:56:43.419Z,79.35
2022-08-16T06:59:17.270Z,78.49
2022-08-16T07:01:54.474Z,78.26
2022-08-16T07:04:33.401Z,78.46
2022-08-16T07:07:14.482Z,78.48
2022-08-16T07:09:42.135Z,77.34
2022-08-16T07:12:09.440Z,76.18
2022-08-16T07:14:40.629Z,74.66
2022-08-16T07:17:12.711Z,74.71
2022-08-16T07:20:02.963Z,73.47
2022-08-16T07:22:52.983Z,73.99
2022-08-16T07:25:40.297Z,73.26
2022-08-16T07:28:11.818Z,72.67
2022-08-16T07:30:46.610Z,72.83
2022-08-16T07:33:52.088Z,70.81
2022-08-16T07:36:23.111Z,70.70
2022-08-16T07:38:52.289Z,70.91
2022-08-16T07:41:19.700Z,69.70
2022-08-16T07:43:51.270Z,68.94
2022-08-16T07:46:38.064Z,67.56
2022-08-16T07:49:11.717Z,68.50
2022-08-16T07:51:40.575Z,67.52
2022-08-16T07:54:10.897Z,67.39
2022-08-16T07:56:44.756Z,65.19
2022-08-16T07:59:16.389Z,65.27
2022-08-16T08:01:43.389Z,63.00
2022-08-16T08:04:13.161Z,63.96
2022-08-16T08:06:42.167Z,63.02
2022-08-16T08:09:14.682Z,61.88
2022-08-16T08:12:01.189Z,61.87
2022-08-16T08:14:39.966Z,61.89
2022-08-16T08:17:08.564Z,61.17
2022-08-16T08:19:35.848Z,60.52
2022-08-16T08:22:09.827Z,60.23
2022-08-16T08:24:53.422Z,59.28
2022-08-16T08:27:26.328Z,59.03
2022-08-16T08:30:50.049Z,57.67
2022-08-16T08:32:48.970Z,57.55
2022-08-16T08:35:30.737Z,57.37
2022-08-16T08:37:58.925Z,55.95
2022-08-16T08:40:29.326Z,55.59
2022-08-16T08:43:00.302Z,54.50
2022-08-16T08:45:46.964Z,54.37
2022-08-16T08:48:33.423Z,53.88
2022-08-16T08:51:09.104Z,53.97
2022-08-16T08:53:46.547Z,53.58
2022-08-16T08:56:26.912Z,53.46
2022-08-16T08:59:13.183Z,52.59
2022-08-16T09:01:58.147Z,51.11
2022-08-16T09:04:32.797Z,51.91
2022-08-16T09:07:03.908Z,49.51
2022-08-16T09:09:33.820Z,48.42
2022-08-16T09:12:06.215Z,48.98
2022-08-16T09:14:54.951Z,49.16
2022-08-16T09:17:48.764Z,49.39
2022-08-16T09:20:17.074Z,48.54
2022-08-16T09:22:51.476Z,48.45
2022-08-16T09:25:26.442Z,47.93
2022-08-16T09:28:02.170Z,47.97
2022-08-16T09:30:42.969Z,46.92
2022-08-16T09:33:11.296Z,46.01
2022-08-16T09:35:39.069Z,45.44
2022-08-16T09:38:09.941Z,46.11
2022-08-16T09:40:41.784Z,46.03
2022-08-16T09:43:46.444Z,45.32
2022-08-16T09:46:48.816Z,44.08
2022-08-16T09:48:55.903Z,42.99
2022-08-16T09:51:26.330Z,43.32
2022-08-16T09:54:04.503Z,42.73
2022-08-16T09:56:34.680Z,43.30
2022-08-16T09:59:07.235Z,43.20
2022-08-16T10:01:43.621Z,44.05
2022-08-16T10:04:30.900Z,46.85
2022-08-16T10:07:03.033Z,45.45
2022-08-16T10:09:53.427Z,43.54
2022-08-16T10:12:42.492Z,45.23
2022-08-16T10:15:16.998Z,46.00
2022-08-16T10:18:00.024Z,46.22
2022-08-16T10:20:31.568Z,43.60
2022-08-16T10:23:03.572Z,41.35
2022-08-16T10:27:19.780Z,40.86
2022-08-16T10:28:29.027Z,41.08
2022-08-16T10:30:58.882Z,40.61
2022-08-16T10:33:27.269Z,38.94
2022-08-16T10:36:02.633Z,38.65
2022-08-16T10:38:30.201Z,40.01
2022-08-16T10:41:00.508Z,40.38
2022-08-16T10:43:27.629Z,41.28
2022-08-16T10:46:00.692Z,41.51
2022-08-16T10:48:28.859Z,41.83
2022-08-16T10:51:00.517Z,41.80
2022-08-16T10:53:33.079Z,41.93
2022-08-16T10:56:02.468Z,41.81
2022-08-16T10:58:34.406Z,40.28
2022-08-16T11:01:40.114Z,38.85
2022-08-16T11:03:59.544Z,37.21
2022-08-16T11:06:28.789Z,36.14
2022-08-16T11:14:30.293Z,35.21
2022-08-16T11:17:09.318Z,34.35
2022-08-16T11:20:00.549Z,34.64
2022-08-16T11:22:47.700Z,33.61
2022-08-16T11:25:59.426Z,34.25
2022-08-16T11:28:01.318Z,33.00
2022-08-16T11:30:38.618Z,34.06
2022-08-16T11:33:07.353Z,34.98
2022-08-16T11:38:51.383Z,37.75
2022-08-16T11:41:10.135Z,36.94
2022-08-16T11:43:40.442Z,35.91
2022-08-16T11:46:44.141Z,36.10
2022-08-16T11:49:03.956Z,34.96
2022-08-16T11:51:30.580Z,34.24
2022-08-16T11:53:57.396Z,34.25
2022-08-16T11:56:39.867Z,34.46
2022-08-16T11:59:13.677Z,34.68
2022-08-16T12:01:44.624Z,35.20
2022-08-16T12:04:23.058Z,36.08
2022-08-16T12:06:53.579Z,35.85
2022-08-16T12:09:21.274Z,36.55
2022-08-16T12:11:52.801Z,36.73
2022-08-16T12:14:22.781Z,37.95
2022-08-16T12:16:55.754Z,38.31
2022-08-16T12:19:35.334Z,38.45
2022-08-16T12:22:19.604Z,39.29
2022-08-16T12:24:52.059Z,39.37
2022-08-16T12:27:25.027Z,38.13
2022-08-16T12:29:52.793Z,36.59
2022-08-16T12:32:38.452Z,35.26
2022-08-16T12:35:12.045Z,34.53
2022-08-16T12:37:39.697Z,35.34
2022-08-16T12:40:23.110Z,34.81
2022-08-16T12:42:54.887Z,35.73
2022-08-16T12:45:28.360Z,35.12
2022-08-16T12:48:34.519Z,35.09
2022-08-16T12:51:01.066Z,35.19
2022-08-16T12:53:31.874Z,34.79
2022-08-16T12:55:59.560Z,35.04
2022-08-16T12:58:49.350Z,33.87
2022-08-16T13:01:26.681Z,33.83
2022-08-16T13:04:11.969Z,34.75
2022-08-16T13:06:43.027Z,36.08
2022-08-16T13:09:26.748Z,36.32
2022-08-16T13:12:07.202Z,35.84
2022-08-16T13:14:39.312Z,35.01
2022-08-16T13:17:14.208Z,35.12
2022-08-16T13:20:07.855Z,34.50
2022-08-16T13:22:47.114Z,34.13
2022-08-16T13:25:20.904Z,34.86
2022-08-16T13:28:02.343Z,36.34
2022-08-16T13:30:41.585Z,35.99
2022-08-16T13:33:18.193Z,34.94
2022-08-16T13:35:55.966Z,34.18
2022-08-16T13:38:31.545Z,33.83
2022-08-16T13:41:08.875Z,33.97
2022-08-16T13:43:38.302Z,34.85
2022-08-16T13:46:06.615Z,35.00
2022-08-16T13:48:42.579Z,34.61
2022-08-16T13:51:17.583Z,34.58
2022-08-16T13:53:59.312Z,34.81
2022-08-16T13:56:35.970Z,34.40
2022-08-16T13:59:19.396Z,34.52
2022-08-16T14:01:55.607Z,34.06
2022-08-16T14:04:28.951Z,35.67
2022-08-16T14:07:00.885Z,35.46
2022-08-16T14:09:30.209Z,35.10
2022-08-16T14:11:58.415Z,36.05
2022-08-16T14:14:29.837Z,35.86
2022-08-16T14:16:59.328Z,35.93
2022-08-16T14:19:27.059Z,37.03
2022-08-16T14:22:13.552Z,37.40
2022-08-16T14:24:47.350Z,37.48
2022-08-16T14:27:19.515Z,37.75
2022-08-16T14:29:49.939Z,37.74
2022-08-16T14:32:33.623Z,37.42
2022-08-16T14:35:11.386Z,37.58
2022-08-16T14:37:39.378Z,37.75
2022-08-16T14:40:12.453Z,37.44
2022-08-16T14:42:40.343Z,36.12
2022-08-16T14:45:13.524Z,36.27
2022-08-16T14:47:40.633Z,37.09
2022-08-16T14:50:12.830Z,37.40
2022-08-16T14:53:02.059Z,37.60
2022-08-16T14:55:33.277Z,38.93
2022-08-16T14:58:04.919Z,38.65
2022-08-16T15:00:36.588Z,39.04
2022-08-16T15:03:09.582Z,38.99
2022-08-16T15:05:38.647Z,38.83
2022-08-16T15:08:05.927Z,39.21
2022-08-16T15:10:32.658Z,38.29
2022-08-16T15:13:01.279Z,38.14
2022-08-16T15:15:30.365Z,38.11
2022-08-16T15:17:58.951Z,38.84
2022-08-16T15:20:30.762Z,39.04
2022-08-16T15:22:59.546Z,39.39
2022-08-16T15:25:30.395Z,39.46
2022-08-16T15:27:58.543Z,39.88
2022-08-16T15:30:57.711Z,39.75
2022-08-16T15:33:19.873Z,39.74
2022-08-16T15:35:50.009Z,39.71
2022-08-16T15:38:56.980Z,39.29
2022-08-16T15:41:04.149Z,39.45
2022-08-16T15:43:38.862Z,38.26
2022-08-16T15:46:54.677Z,39.03
2022-08-16T15:49:10.364Z,39.22
2022-08-16T15:51:39.279Z,39.47
2022-08-16T15:54:29.154Z,39.78
2022-08-16T15:56:55.168Z,39.96
2022-08-16T15:59:24.620Z,40.11
2022-08-16T16:01:55.901Z,40.38
2022-08-16T16:04:25.690Z,40.52
2022-08-16T16:06:55.162Z,40.47
2022-08-16T16:09:34.771Z,40.74
2022-08-16T16:12:41.486Z,40.81
2022-08-16T16:14:52.902Z,40.50
2022-08-16T16:17:19.479Z,40.60
2022-08-16T16:19:53.659Z,40.47
2022-08-16T16:22:21.688Z,40.30
2022-08-16T16:24:50.021Z,39.29
2022-08-16T16:27:16.875Z,38.93
2022-08-16T16:29:46.342Z,38.86
2022-08-16T16:32:34.341Z,39.04
2022-08-16T16:35:02.461Z,38.87
2022-08-16T16:37:31.052Z,38.31
2022-08-16T16:39:58.775Z,37.88
2022-08-16T16:42:29.998Z,37.71
2022-08-16T16:45:01.622Z,37.36
2022-08-16T16:47:40.565Z,37.10
2022-08-16T16:50:09.309Z,37.32
2022-08-16T16:52:44.055Z,36.59
2022-08-16T16:55:14.730Z,36.77
2022-08-16T16:58:00.744Z,36.74
2022-08-16T17:00:37.704Z,36.60
2022-08-16T17:03:06.350Z,37.47
2022-08-16T17:05:56.891Z,37.62
2022-08-16T17:08:27.648Z,37.85
2022-08-16T17:10:55.981Z,37.94
2022-08-16T17:13:24.483Z,38.39
2022-08-16T17:15:53.084Z,38.57
2022-08-16T17:21:09.031Z,38.93
2022-08-16T17:23:58.582Z,39.03
2022-08-16T17:26:30.151Z,39.24
2022-08-16T17:29:02.766Z,38.65
2022-08-16T17:31:41.003Z,38.74
2022-08-16T17:34:29.040Z,38.57
2022-08-16T17:37:05.130Z,38.14
2022-08-16T17:39:28.770Z,38.71
2022-08-16T17:39:58.187Z,37.79
2022-08-16T17:42:25.253Z,38.41
2022-08-16T17:44:52.150Z,38.93
2022-08-16T17:47:18.781Z,38.89
2022-08-16T17:49:45.389Z,39.38
2022-08-16T17:52:12.745Z,38.89
2022-08-16T17:54:39.467Z,38.92
2022-08-16T17:57:06.659Z,39.26
2022-08-16T17:59:36.899Z,39.39
2022-08-16T18:02:43.486Z,39.84
2022-08-16T18:05:03.236Z,39.90
2022-08-16T18:07:29.805Z,40.40
2022-08-16T18:09:56.403Z,40.99
2022-08-16T18:12:44.994Z,41.77
2022-08-16T18:15:14.601Z,42.37
2022-08-16T18:17:41.899Z,42.83
2022-08-16T18:20:32.331Z,42.79
2022-08-16T18:23:15.051Z,43.07
2022-08-16T18:25:46.868Z,44.31
2022-08-16T18:28:14.306Z,44.51
2022-08-16T18:30:41.129Z,45.17
2022-08-16T18:33:07.987Z,46.16
2022-08-16T18:35:35.165Z,46.42
2022-08-16T18:38:01.864Z,46.96
2022-08-16T18:40:28.813Z,48.14
2022-08-16T18:43:00.271Z,48.49
2022-08-16T18:45:35.106Z,48.92
2022-08-16T18:48:04.570Z,50.00
2022-08-16T18:51:03.167Z,50.37
2022-08-16T18:53:21.104Z,51.30
2022-08-16T18:55:48.934Z,51.23
2022-08-16T18:58:26.366Z,51.88
2022-08-16T19:00:56.550Z,51.75
2022-08-16T19:03:26.366Z,52.30
2022-08-16T19:06:02.757Z,53.55
2022-08-16T19:08:30.751Z,53.39
2022-08-16T19:10:57.499Z,53.91
2022-08-16T19:13:27.767Z,54.40
2022-08-16T19:15:58.324Z,54.67
2022-08-16T19:18:25.775Z,54.51
2022-08-16T19:20:55.430Z,55.72
2022-08-16T19:23:24.877Z,55.83
2022-08-16T19:25:55.777Z,55.50
2022-08-16T19:28:51.204Z,56.02
2022-08-16T19:31:22.412Z,56.12
2022-08-16T19:33:54.819Z,56.15
2022-08-16T19:36:31.038Z,56.81
2022-08-16T19:39:05.415Z,56.06
2022-08-16T19:41:34.199Z,56.37
2022-08-16T19:44:00.803Z,56.73
2022-08-16T19:46:27.683Z,56.50
2022-08-16T19:48:54.274Z,56.80
2022-08-16T19:51:20.867Z,56.48
2022-08-16T19:53:47.472Z,56.50
2022-08-16T19:56:14.095Z,56.90
2022-08-16T19:58:56.076Z,57.64
2022-08-16T20:01:24.942Z,57.33
2022-08-16T20:03:51.943Z,57.44
2022-08-16T20:06:38.429Z,57.53
2022-08-16T20:09:05.593Z,57.26
2022-08-16T20:11:32.310Z,57.38
2022-08-16T20:13:59.405Z,58.06
2022-08-16T20:16:26.168Z,58.24
2022-08-16T20:18:52.827Z,58.40
2022-08-16T20:21:19.542Z,58.39
2022-08-16T20:23:46.325Z,58.86
2022-08-16T20:26:13.228Z,59.53
2022-08-16T20:28:53.126Z,59.81
2022-08-16T20:31:25.074Z,60.27
2022-08-16T20:33:53.161Z,60.38
2022-08-16T20:36:19.833Z,60.77
2022-08-16T20:38:47.659Z,60.67
2022-08-16T20:41:16.325Z,60.85
2022-08-16T20:43:43.538Z,60.63
2022-08-16T20:46:12.291Z,61.16
2022-08-16T20:48:38.915Z,61.37
2022-08-16T20:51:06.835Z,61.32
2022-08-16T20:53:33.996Z,62.51
2022-08-16T20:56:00.740Z,62.30
2022-08-16T20:58:27.337Z,62.36
2022-08-16T21:00:53.980Z,63.01
2022-08-16T21:03:20.701Z,62.98
2022-08-16T21:05:47.330Z,62.66
2022-08-16T21:08:26.943Z,62.76
2022-08-16T21:11:04.281Z,62.52
2022-08-16T21:13:32.712Z,63.06
2022-08-16T21:16:01.904Z,63.44
2022-08-16T21:18:29.199Z,62.54
2022-08-16T21:20:56.176Z,62.67
2022-08-16T21:23:22.829Z,62.13
2022-08-16T21:25:58.283Z,61.50
2022-08-16T21:28:40.526Z,61.42
2022-08-16T21:31:15.324Z,61.37
2022-08-16T21:33:43.337Z,61.68
2022-08-16T21:36:11.478Z,62.12
2022-08-16T21:38:38.845Z,62.42
2022-08-16T21:41:07.224Z,62.71
2022-08-16T21:43:34.237Z,62.57
2022-08-16T21:46:02.505Z,62.74
2022-08-16T21:48:33.658Z,62.95
2022-08-16T21:51:07.428Z,62.53
2022-08-16T21:53:39.650Z,62.98
2022-08-16T21:56:06.693Z,62.88
2022-08-16T21:58:37.960Z,64.12
2022-08-16T22:01:05.051Z,64.86
2022-08-16T22:03:35.373Z,65.31
2022-08-16T22:06:12.914Z,65.68
2022-08-16T22:08:50.557Z,66.22
2022-08-16T22:11:22.041Z,66.50
2022-08-16T22:13:57.898Z,66.21
2022-08-16T22:16:51.296Z,66.94
2022-08-16T22:19:36.637Z,67.15
2022-08-16T22:22:03.572Z,66.69
2022-08-16T22:24:30.205Z,66.60
2022-08-16T22:26:56.962Z,67.36
2022-08-16T22:29:23.610Z,68.10
2022-08-16T22:31:50.237Z,67.01
2022-08-16T22:34:17.033Z,66.15
2022-08-16T22:36:44.038Z,66.28
2022-08-16T22:39:12.922Z,66.40
2022-08-16T22:41:42.298Z,67.20
2022-08-16T22:44:09.416Z,66.66
2022-08-16T22:46:36.806Z,67.66
2022-08-16T22:49:05.840Z,67.95
2022-08-16T22:51:33.324Z,68.24
2022-08-16T22:54:00.203Z,68.46
2022-08-16T22:56:46.851Z,68.33
2022-08-16T22:59:15.331Z,68.35
2022-08-16T23:01:42.162Z,68.27
2022-08-16T23:04:08.796Z,68.63
2022-08-16T23:06:35.391Z,68.23
2022-08-16T23:09:02.195Z,68.65
2022-08-16T23:11:28.845Z,69.50
2022-08-16T23:13:56.653Z,68.82
2022-08-16T23:16:33.384Z,67.82
2022-08-16T23:19:07.477Z,68.17
2022-08-16T23:21:37.115Z,67.36
2022-08-16T23:24:04.336Z,67.29
2022-08-16T23:26:46.487Z,66.33
2022-08-16T23:29:24.159Z,65.82
2022-08-16T23:31:58.269Z,66.51
2022-08-16T23:34:27.094Z,66.47
2022-08-16T23:36:54.100Z,67.44
2022-08-16T23:39:20.759Z,67.67
2022-08-16T23:41:47.453Z,68.41
2022-08-16T23:44:45.530Z,68.80
2022-08-16T23:47:00.764Z,68.51
2022-08-16T23:50:01.304Z,67.81
2022-08-16T23:52:14.457Z,67.61
2022-08-16T23:54:41.201Z,67.77
2022-08-16T23:57:08.433Z,67.59
2022-08-16T23:59:48.660Z,67.36
